Time;durP1;ratioP1;P1;durP2;ratioP2;P2;SDS_P1;SDS_P2;PMS_P1;PMS_P2;Temp;Humidity;BMP_temperature;BMP_pressure;BME280_temperature;BME280_humidity;BME280_pressure;Samples;Min_cycle;Max_cycle;Signal;HPM_P1;HPM_P2
2023/05/19 00:00:56;;;;;;;;;;;6.30;1.00;;;;;;5113503;27;19971;-84
2023/05/19 00:03:23;;;;;;;;;;;6.30;1.00;;;;;;5153229;27;19934;-85
2023/05/19 00:05:52;;;;;;;;;;;6.30;1.00;;;;;;5151418;27;20337;-85
2023/05/19 00:08:18;;;;;;;;;;;6.30;1.00;;;;;;5152341;27;19927;-84
2023/05/19 00:10:44;;;;;;;;;;;6.20;1.00;;;;;;5125017;27;19963;-85
2023/05/19 00:13:09;;;;;;;;;;;6.20;1.00;;;;;;5135360;27;19978;-85
2023/05/19 00:15:35;;;;;;;;;;;6.20;1.00;;;;;;5127030;27;20322;-84
2023/05/19 00:18:01;;;;;;;;;;;6.10;1.00;;;;;;5143422;27;20014;-85
2023/05/19 00:20:27;;;;;;;;;;;6.20;1.00;;;;;;5128150;27;19927;-86
2023/05/19 00:22:52;;;;;;;;;;;6.10;26.00;;;;;;5150023;27;19927;-86
2023/05/19 00:25:18;;;;;;;;;;;6.20;53.20;;;;;;5125508;27;20018;-87
2023/05/19 00:27:43;;;;;;;;;;;6.20;58.90;;;;;;5151295;27;20349;-86
2023/05/19 00:30:09;;;;;;;;;;;6.10;73.10;;;;;;5123034;27;19934;-86
2023/05/19 00:32:35;;;;;;;;;;;6.10;99.90;;;;;;5144079;27;19927;-85
2023/05/19 00:35:00;;;;;;;;;;;6.10;89.60;;;;;;5151398;27;19976;-87
2023/05/19 00:37:26;;;;;;;;;;;6.10;79.20;;;;;;5117110;27;20446;-86
2023/05/19 00:39:52;;;;;;;;;;;6.10;66.80;;;;;;5132964;27;19944;-86
2023/05/19 00:42:19;;;;;;;;;;;6.00;59.90;;;;;;5113793;27;20008;-85
2023/05/19 00:44:44;;;;;;;;;;;6.00;41.10;;;;;;5118671;27;19934;-85
2023/05/19 00:47:10;;;;;;;;;;;5.90;8.40;;;;;;5139756;27;19923;-86
2023/05/19 00:49:35;;;;;;;;;;;5.80;12.20;;;;;;5136872;27;19972;-87
2023/05/19 00:52:01;;;;;;;;;;;5.80;60.70;;;;;;5116802;27;19927;-86
2023/05/19 00:54:27;;;;;;;;;;;5.80;99.70;;;;;;5148473;27;19991;-86
2023/05/19 00:56:54;;;;;;;;;;;5.80;99.90;;;;;;5151991;27;19927;-86
2023/05/19 00:59:19;;;;;;;;;;;5.80;99.90;;;;;;5150551;27;19919;-85
2023/05/19 01:01:47;;;;;;;;;;;5.70;90.10;;;;;;5152201;27;19930;-85
2023/05/19 01:04:20;;;;;;;;;;;5.60;69.50;;;;;;5120447;27;19961;-86
2023/05/19 01:06:54;;;;;;;;;;;5.60;49.40;;;;;;5124222;27;19944;-85
2023/05/19 01:09:23;;;;;;;;;;;5.50;41.60;;;;;;5148171;27;19952;-85
2023/05/19 01:11:49;;;;;;;;;;;5.40;35.10;;;;;;5141218;27;19930;-85
2023/05/19 01:14:15;;;;;;;;;;;5.40;90.50;;;;;;5149338;27;20002;-85
2023/05/19 01:16:57;;;;;;;;;;;5.40;99.90;;;;;;5133641;27;19974;-85
2023/05/19 01:19:42;;;;;;;;;;;5.40;99.90;;;;;;5137308;27;20367;-86
2023/05/19 01:22:15;;;;;;;;;;;5.40;99.90;;;;;;5137851;27;20012;-86
2023/05/19 01:24:40;;;;;;;;;;;5.40;99.90;;;;;;5151033;27;19927;-86
2023/05/19 01:27:21;;;;;;;;;;;5.40;99.90;;;;;;5149478;27;19950;-85
2023/05/19 01:29:47;;;;;;;;;;;5.20;99.90;;;;;;5134750;27;19934;-85
2023/05/19 01:32:14;;;;;;;;;;;5.20;99.90;;;;;;5148637;27;19927;-85
2023/05/19 01:34:41;;;;;;;;;;;5.30;99.90;;;;;;5131014;27;19934;-85
2023/05/19 01:37:08;;;;;;;;;;;5.30;99.90;;;;;;5148103;27;19927;-85
2023/05/19 01:39:34;;;;;;;;;;;5.30;99.90;;;;;;5148349;27;19923;-85
2023/05/19 01:42:00;;;;;;;;;;;5.30;99.90;;;;;;5146887;27;19930;-85
2023/05/19 01:44:26;;;;;;;;;;;5.20;99.90;;;;;;5146434;27;19926;-85
2023/05/19 01:46:52;;;;;;;;;;;5.20;99.90;;;;;;5131367;27;19934;-85
2023/05/19 01:49:17;;;;;;;;;;;5.10;99.90;;;;;;5128743;27;19927;-85
2023/05/19 01:51:43;;;;;;;;;;;5.10;99.90;;;;;;5129918;27;19927;-85
2023/05/19 01:54:08;;;;;;;;;;;5.10;99.90;;;;;;5125954;27;19924;-83
2023/05/19 01:56:42;;;;;;;;;;;5.10;99.90;;;;;;5115647;27;20023;-85
2023/05/19 01:59:17;;;;;;;;;;;5.10;99.90;;;;;;5132757;27;20445;-84
2023/05/19 02:01:50;;;;;;;;;;;5.00;99.90;;;;;;5148270;27;20418;-84
2023/05/19 02:04:38;;;;;;;;;;;4.90;99.90;;;;;;5139171;27;19931;-85
2023/05/19 02:07:24;;;;;;;;;;;4.90;99.90;;;;;;5132026;27;19923;-85
2023/05/19 02:09:58;;;;;;;;;;;4.80;99.90;;;;;;5127281;27;19927;-85
2023/05/19 02:12:33;;;;;;;;;;;4.80;99.90;;;;;;5130529;27;19923;-84
2023/05/19 02:15:03;;;;;;;;;;;4.70;99.90;;;;;;5117242;28;19923;-86
2023/05/19 02:17:31;;;;;;;;;;;4.70;99.90;;;;;;5142676;27;20772;-85
2023/05/19 02:19:57;;;;;;;;;;;4.70;99.90;;;;;;5135037;27;19927;-85
2023/05/19 02:22:23;;;;;;;;;;;4.60;99.90;;;;;;5119883;27;19931;-84
2023/05/19 02:24:50;;;;;;;;;;;4.60;99.90;;;;;;5149369;27;19924;-85
2023/05/19 02:27:16;;;;;;;;;;;4.60;99.90;;;;;;5129660;27;19934;-84
2023/05/19 02:29:41;;;;;;;;;;;4.60;99.90;;;;;;5135323;27;19927;-84
2023/05/19 02:32:07;;;;;;;;;;;4.60;99.90;;;;;;5144126;27;19923;-84
2023/05/19 02:34:33;;;;;;;;;;;4.50;99.90;;;;;;5140775;27;19935;-85
2023/05/19 02:36:58;;;;;;;;;;;4.50;99.90;;;;;;5135008;27;20368;-86
2023/05/19 02:39:25;;;;;;;;;;;4.50;99.90;;;;;;5124915;27;19926;-85
2023/05/19 02:41:50;;;;;;;;;;;4.50;99.90;;;;;;5131549;27;19923;-85
2023/05/19 02:44:16;;;;;;;;;;;4.50;99.90;;;;;;5133880;27;19931;-85
2023/05/19 02:46:41;;;;;;;;;;;4.40;99.90;;;;;;5154222;27;19930;-85
2023/05/19 02:49:07;;;;;;;;;;;4.40;99.90;;;;;;5149571;27;19923;-86
2023/05/19 02:51:32;;;;;;;;;;;4.40;99.90;;;;;;5119019;27;20722;-85
2023/05/19 02:53:58;;;;;;;;;;;4.40;99.90;;;;;;5129735;27;19924;-85
2023/05/19 02:56:25;;;;;;;;;;;4.30;99.90;;;;;;5148451;27;19963;-84
2023/05/19 02:58:51;;;;;;;;;;;4.30;99.90;;;;;;5130096;27;20379;-85
2023/05/19 03:01:17;;;;;;;;;;;4.30;99.90;;;;;;5118374;27;20013;-84
2023/05/19 03:03:42;;;;;;;;;;;4.30;99.90;;;;;;5136049;27;20026;-84
2023/05/19 03:06:08;;;;;;;;;;;4.20;99.90;;;;;;5122981;27;19931;-84
2023/05/19 03:08:34;;;;;;;;;;;4.20;99.90;;;;;;5135262;27;20356;-84
2023/05/19 03:11:00;;;;;;;;;;;4.30;99.90;;;;;;5132760;27;20018;-84
2023/05/19 03:13:26;;;;;;;;;;;4.20;99.90;;;;;;5125443;27;20018;-83
2023/05/19 03:15:51;;;;;;;;;;;4.20;99.90;;;;;;5129406;27;20056;-84
2023/05/19 03:18:17;;;;;;;;;;;4.10;99.90;;;;;;5145713;27;19977;-83
2023/05/19 03:20:43;;;;;;;;;;;4.10;99.90;;;;;;5147634;27;20012;-84
2023/05/19 03:23:09;;;;;;;;;;;4.10;99.90;;;;;;5143388;27;19968;-84
2023/05/19 03:25:35;;;;;;;;;;;4.10;99.90;;;;;;5136716;27;19931;-84
2023/05/19 03:28:00;;;;;;;;;;;4.10;99.90;;;;;;5125204;27;20325;-82
2023/05/19 03:30:26;;;;;;;;;;;4.10;99.90;;;;;;5115162;27;19931;-83
2023/05/19 03:32:52;;;;;;;;;;;4.10;99.90;;;;;;5137461;27;20024;-83
2023/05/19 03:35:17;;;;;;;;;;;4.10;99.90;;;;;;5134196;27;19957;-83
2023/05/19 03:37:43;;;;;;;;;;;4.10;99.90;;;;;;5132884;27;20398;-83
2023/05/19 03:40:09;;;;;;;;;;;4.20;99.90;;;;;;5141648;27;19929;-84
2023/05/19 03:42:35;;;;;;;;;;;4.20;99.90;;;;;;5152020;27;20471;-84
2023/05/19 03:45:01;;;;;;;;;;;4.20;99.90;;;;;;5150394;27;19931;-83
2023/05/19 03:47:26;;;;;;;;;;;4.20;99.90;;;;;;5133479;27;19929;-84
2023/05/19 03:49:52;;;;;;;;;;;4.20;99.90;;;;;;5121969;27;20197;-84
2023/05/19 03:52:17;;;;;;;;;;;4.20;99.90;;;;;;5135412;27;19966;-84
2023/05/19 03:54:43;;;;;;;;;;;4.30;99.90;;;;;;5147707;27;19931;-85
2023/05/19 03:57:10;;;;;;;;;;;4.30;99.90;;;;;;5109028;27;20432;-84
2023/05/19 03:59:36;;;;;;;;;;;4.50;99.90;;;;;;5142415;27;20973;-84
2023/05/19 04:02:02;;;;;;;;;;;4.40;99.90;;;;;;5119392;27;19927;-84
2023/05/19 04:04:27;;;;;;;;;;;4.40;99.90;;;;;;5151524;27;19938;-84
2023/05/19 04:06:53;;;;;;;;;;;4.30;99.90;;;;;;5143569;27;19983;-84
2023/05/19 04:09:18;;;;;;;;;;;4.30;99.90;;;;;;5150869;27;19948;-85
2023/05/19 04:11:44;;;;;;;;;;;4.30;99.90;;;;;;5143311;27;20164;-84
2023/05/19 04:14:10;;;;;;;;;;;4.30;99.90;;;;;;5148828;27;20383;-84
2023/05/19 04:16:36;;;;;;;;;;;4.40;99.90;;;;;;5145010;27;19931;-85
2023/05/19 04:19:01;;;;;;;;;;;4.40;99.90;;;;;;5125477;27;19986;-85
2023/05/19 04:21:27;;;;;;;;;;;4.40;99.90;;;;;;5126994;27;19927;-83
2023/05/19 04:23:53;;;;;;;;;;;4.30;99.90;;;;;;5127268;27;19927;-83
2023/05/19 04:26:20;;;;;;;;;;;4.40;99.90;;;;;;5151536;27;20418;-84
2023/05/19 04:28:47;;;;;;;;;;;4.50;99.90;;;;;;5121276;27;20341;-84
2023/05/19 04:31:13;;;;;;;;;;;4.50;99.90;;;;;;5150155;27;19966;-86
2023/05/19 04:33:39;;;;;;;;;;;4.60;99.90;;;;;;5149756;27;19974;-84
2023/05/19 04:36:09;;;;;;;;;;;4.60;99.90;;;;;;5134058;27;19941;-84
2023/05/19 04:38:35;;;;;;;;;;;4.70;99.90;;;;;;5148480;27;19988;-84
2023/05/19 04:41:01;;;;;;;;;;;4.70;99.90;;;;;;5148070;27;19923;-84
2023/05/19 04:43:27;;;;;;;;;;;4.80;99.90;;;;;;5148563;27;19927;-84
2023/05/19 04:45:53;;;;;;;;;;;4.90;99.90;;;;;;5149868;27;19961;-84
2023/05/19 04:48:20;;;;;;;;;;;4.90;99.90;;;;;;5141853;27;19923;-84
2023/05/19 04:50:50;;;;;;;;;;;5.10;99.90;;;;;;5113000;27;20403;-84
2023/05/19 04:53:16;;;;;;;;;;;5.10;99.90;;;;;;5124116;27;20010;-84
2023/05/19 04:55:42;;;;;;;;;;;5.10;99.90;;;;;;5147128;27;20021;-84
2023/05/19 04:58:08;;;;;;;;;;;5.20;99.90;;;;;;5123517;27;20464;-86
2023/05/19 05:00:34;;;;;;;;;;;5.20;99.90;;;;;;5119493;27;19923;-84
2023/05/19 05:03:03;;;;;;;;;;;5.30;99.90;;;;;;5126262;27;19927;-85
2023/05/19 05:05:29;;;;;;;;;;;5.40;1.00;;;;;;5123321;27;19924;-84
2023/05/19 05:07:56;;;;;;;;;;;5.50;1.00;;;;;;5115377;27;20391;-84
2023/05/19 05:10:21;;;;;;;;;;;5.60;1.00;;;;;;5120229;27;19928;-84
2023/05/19 05:12:47;;;;;;;;;;;5.70;1.00;;;;;;5127569;27;19923;-84
2023/05/19 05:15:13;;;;;;;;;;;5.90;1.00;;;;;;5105377;28;20022;-84
2023/05/19 05:17:38;;;;;;;;;;;6.00;1.00;;;;;;5094033;27;19923;-84
2023/05/19 05:20:05;;;;;;;;;;;6.20;1.00;;;;;;5130674;27;19936;-84
2023/05/19 05:22:31;;;;;;;;;;;6.30;1.00;;;;;;5116897;27;19935;-84
2023/05/19 05:24:57;;;;;;;;;;;6.40;1.00;;;;;;5128081;27;19953;-84
2023/05/19 05:27:22;;;;;;;;;;;6.50;1.00;;;;;;5113326;27;19927;-84
2023/05/19 05:29:48;;;;;;;;;;;6.70;1.00;;;;;;5113613;27;19937;-84
2023/05/19 05:32:15;;;;;;;;;;;6.80;1.00;;;;;;5129106;27;20006;-85
2023/05/19 05:34:41;;;;;;;;;;;6.90;1.00;;;;;;5130233;27;19962;-85
2023/05/19 05:37:07;;;;;;;;;;;7.00;1.00;;;;;;5111963;27;19973;-85
2023/05/19 05:39:32;;;;;;;;;;;7.10;1.00;;;;;;5098335;28;19935;-85
2023/05/19 05:41:58;;;;;;;;;;;7.30;1.00;;;;;;5122996;27;20414;-83
2023/05/19 05:44:23;;;;;;;;;;;7.40;1.00;;;;;;5129665;27;19948;-85
2023/05/19 05:46:49;;;;;;;;;;;7.50;1.00;;;;;;5118144;27;19927;-85
2023/05/19 05:49:15;;;;;;;;;;;7.70;1.00;;;;;;5106429;27;19928;-85
2023/05/19 05:51:41;;;;;;;;;;;7.80;1.00;;;;;;5124683;27;19923;-85
2023/05/19 05:54:06;;;;;;;;;;;8.00;1.00;;;;;;5121489;27;19946;-85
2023/05/19 05:56:32;;;;;;;;;;;8.00;1.00;;;;;;5128981;27;19927;-85
2023/05/19 05:58:58;;;;;;;;;;;8.10;1.00;;;;;;5146526;27;19923;-85
2023/05/19 06:01:24;;;;;;;;;;;8.20;1.00;;;;;;5146084;27;19931;-85
2023/05/19 06:03:49;;;;;;;;;;;8.40;1.00;;;;;;5150498;27;20397;-84
2023/05/19 06:06:15;;;;;;;;;;;8.50;1.00;;;;;;5126729;27;19924;-84
2023/05/19 06:08:41;;;;;;;;;;;8.70;1.00;;;;;;5147223;27;20261;-85
2023/05/19 06:11:09;;;;;;;;;;;8.90;1.00;;;;;;5117347;27;19927;-84
2023/05/19 06:13:35;;;;;;;;;;;9.10;99.90;;;;;;5141140;27;19927;-83
2023/05/19 06:16:01;;;;;;;;;;;9.30;99.90;;;;;;5145288;27;20725;-82
2023/05/19 06:18:27;;;;;;;;;;;9.60;99.90;;;;;;5132081;27;19927;-83
2023/05/19 06:20:52;;;;;;;;;;;9.80;99.90;;;;;;5114212;27;19928;-83
2023/05/19 06:23:18;;;;;;;;;;;10.10;99.90;;;;;;5139498;27;19923;-84
2023/05/19 06:25:43;;;;;;;;;;;10.30;99.90;;;;;;5139825;27;19927;-86
2023/05/19 06:28:09;;;;;;;;;;;10.50;99.90;;;;;;5140406;27;19927;-83
2023/05/19 06:30:35;;;;;;;;;;;10.70;54.30;;;;;;5142614;27;19973;-81
2023/05/19 06:33:02;;;;;;;;;;;10.90;1.00;;;;;;5124199;27;19931;-81
2023/05/19 06:35:27;;;;;;;;;;;11.10;1.00;;;;;;5141680;27;20348;-80
2023/05/19 06:37:55;;;;;;;;;;;11.30;99.90;;;;;;5148184;27;19927;-78
2023/05/19 06:40:20;;;;;;;;;;;11.40;99.90;;;;;;5150739;27;19970;-77
2023/05/19 06:42:46;;;;;;;;;;;11.60;99.90;;;;;;5151866;27;19978;-87
2023/05/19 06:45:12;;;;;;;;;;;11.90;99.90;;;;;;5137501;27;19971;-84
2023/05/19 06:47:40;;;;;;;;;;;12.10;99.90;;;;;;5140948;27;20299;-83
2023/05/19 06:50:06;;;;;;;;;;;12.30;99.90;;;;;;5140893;27;19985;-81
2023/05/19 06:52:31;;;;;;;;;;;12.40;99.90;;;;;;5146136;27;19967;-79
2023/05/19 06:54:57;;;;;;;;;;;12.70;99.90;;;;;;5140720;27;19934;-82
2023/05/19 06:57:22;;;;;;;;;;;12.90;99.90;;;;;;5136687;27;19928;-82
2023/05/19 06:59:48;;;;;;;;;;;13.20;99.90;;;;;;5119845;27;20368;-83
2023/05/19 07:02:13;;;;;;;;;;;13.40;99.90;;;;;;5139438;27;19970;-81
2023/05/19 07:04:39;;;;;;;;;;;13.60;93.90;;;;;;5148159;27;20084;-84
2023/05/19 07:07:05;;;;;;;;;;;13.80;71.90;;;;;;5146591;27;19927;-84
2023/05/19 07:09:31;;;;;;;;;;;14.00;82.40;;;;;;5132534;27;19939;-84
2023/05/19 07:11:56;;;;;;;;;;;14.30;90.50;;;;;;5132869;27;19967;-85
2023/05/19 07:14:22;;;;;;;;;;;14.50;92.10;;;;;;5127862;27;20292;-84
2023/05/19 07:16:47;;;;;;;;;;;14.70;46.70;;;;;;5150299;27;19923;-84
2023/05/19 07:19:13;;;;;;;;;;;14.90;29.00;;;;;;5129601;27;19931;-85
2023/05/19 07:21:39;;;;;;;;;;;15.10;8.40;;;;;;5123164;28;20444;-85
2023/05/19 07:24:04;;;;;;;;;;;15.30;19.70;;;;;;5118643;27;19952;-85
2023/05/19 07:26:30;;;;;;;;;;;15.60;24.60;;;;;;5143333;27;20388;-84
2023/05/19 07:28:56;;;;;;;;;;;15.80;8.40;;;;;;5115775;27;19923;-85
2023/05/19 07:31:22;;;;;;;;;;;16.00;1.00;;;;;;5154538;27;20295;-85
2023/05/19 07:33:47;;;;;;;;;;;16.20;1.00;;;;;;5152897;27;19923;-85
2023/05/19 07:36:13;;;;;;;;;;;16.40;1.00;;;;;;5125279;27;19926;-85
2023/05/19 07:38:38;;;;;;;;;;;16.60;1.00;;;;;;5119456;27;19923;-85
2023/05/19 07:41:04;;;;;;;;;;;16.70;1.00;;;;;;5125542;27;20014;-84
2023/05/19 07:43:30;;;;;;;;;;;16.80;1.00;;;;;;5137077;27;19927;-84
2023/05/19 07:45:56;;;;;;;;;;;16.90;1.00;;;;;;5118555;27;19927;-84
2023/05/19 07:48:23;;;;;;;;;;;17.10;1.00;;;;;;5139354;27;19934;-85
2023/05/19 07:50:49;;;;;;;;;;;17.20;1.00;;;;;;5143561;27;19924;-85
2023/05/19 07:53:15;;;;;;;;;;;17.40;1.00;;;;;;5135964;27;20609;-84
2023/05/19 07:55:41;;;;;;;;;;;17.50;1.00;;;;;;5153801;27;20021;-84
2023/05/19 07:58:06;;;;;;;;;;;17.70;1.00;;;;;;5135031;27;20391;-86
2023/05/19 08:00:32;;;;;;;;;;;18.10;1.00;;;;;;5153738;27;20249;-84
2023/05/19 08:02:58;;;;;;;;;;;18.20;1.00;;;;;;5134942;27;20021;-83
2023/05/19 08:05:28;;;;;;;;;;;18.30;1.00;;;;;;5143101;27;19924;-84
2023/05/19 08:07:54;;;;;;;;;;;18.50;1.00;;;;;;5149278;27;19972;-84
2023/05/19 08:10:20;;;;;;;;;;;18.70;1.00;;;;;;5152204;27;20006;-84
2023/05/19 08:12:45;;;;;;;;;;;18.40;1.00;;;;;;5152863;27;20013;-84
2023/05/19 08:15:11;;;;;;;;;;;17.80;1.00;;;;;;5152562;27;19934;-84
2023/05/19 08:17:37;;;;;;;;;;;17.20;1.00;;;;;;5151998;27;19972;-83
2023/05/19 08:20:04;;;;;;;;;;;17.20;1.00;;;;;;5152316;27;19927;-84
2023/05/19 08:22:30;;;;;;;;;;;17.90;1.00;;;;;;5116114;27;19975;-84
2023/05/19 08:24:56;;;;;;;;;;;18.60;1.00;;;;;;5126930;27;19923;-78
2023/05/19 08:27:22;;;;;;;;;;;19.30;1.00;;;;;;5146851;27;19931;-84
2023/05/19 08:29:48;;;;;;;;;;;19.80;1.00;;;;;;5139219;27;20067;-77
2023/05/19 08:32:13;;;;;;;;;;;20.20;1.00;;;;;;5140268;27;19923;-77
2023/05/19 08:34:40;;;;;;;;;;;20.50;1.00;;;;;;5152056;27;19923;-77
2023/05/19 08:37:06;;;;;;;;;;;20.70;1.00;;;;;;5142557;27;20269;-77
2023/05/19 08:39:33;;;;;;;;;;;21.00;1.00;;;;;;5143645;27;19927;-76
2023/05/19 08:41:58;;;;;;;;;;;21.30;1.00;;;;;;5149486;27;20013;-76
2023/05/19 08:44:24;;;;;;;;;;;21.70;1.00;;;;;;5138355;27;20006;-76
2023/05/19 08:46:51;;;;;;;;;;;22.00;1.00;;;;;;5141820;27;19947;-76
2023/05/19 08:49:21;;;;;;;;;;;22.20;1.00;;;;;;5145890;27;19927;-76
2023/05/19 08:51:52;;;;;;;;;;;22.50;1.00;;;;;;5136262;27;20403;-79
2023/05/19 08:54:19;;;;;;;;;;;22.70;1.00;;;;;;5151897;27;19927;-82
2023/05/19 08:56:45;;;;;;;;;;;22.90;1.00;;;;;;5142800;27;20400;-81
2023/05/19 08:59:12;;;;;;;;;;;23.10;1.00;;;;;;5144902;27;19952;-79
2023/05/19 09:01:38;;;;;;;;;;;23.50;1.00;;;;;;5123145;27;19927;-77
2023/05/19 09:04:04;;;;;;;;;;;23.70;1.00;;;;;;5151634;27;19923;-79
2023/05/19 09:06:31;;;;;;;;;;;24.00;1.00;;;;;;5130688;27;19927;-77
2023/05/19 09:08:57;;;;;;;;;;;24.00;1.00;;;;;;5143791;27;19923;-80
2023/05/19 09:11:22;;;;;;;;;;;24.00;1.00;;;;;;5144031;27;19938;-77
2023/05/19 09:13:48;;;;;;;;;;;24.20;1.00;;;;;;5140707;27;19923;-76
2023/05/19 09:16:15;;;;;;;;;;;24.20;1.00;;;;;;5149773;27;19923;-77
2023/05/19 09:18:52;;;;;;;;;;;24.60;1.00;;;;;;5158595;27;19923;-82
2023/05/19 09:21:17;;;;;;;;;;;24.70;1.00;;;;;;5130038;27;19930;-82
2023/05/19 09:23:45;;;;;;;;;;;24.80;1.00;;;;;;5131285;27;19979;-82
2023/05/19 09:26:13;;;;;;;;;;;24.90;1.00;;;;;;5127351;27;19980;-82
2023/05/19 09:28:39;;;;;;;;;;;25.00;1.00;;;;;;5145323;27;20647;-82
2023/05/19 09:31:08;;;;;;;;;;;25.20;1.00;;;;;;5152129;27;19927;-82
2023/05/19 09:33:35;;;;;;;;;;;25.50;1.00;;;;;;5143837;27;19926;-82
2023/05/19 09:36:02;;;;;;;;;;;25.80;1.00;;;;;;5143154;27;20393;-82
2023/05/19 09:38:28;;;;;;;;;;;26.00;1.00;;;;;;5145967;27;19942;-82
2023/05/19 09:40:57;;;;;;;;;;;26.20;1.00;;;;;;5125669;27;19928;-78
2023/05/19 09:43:23;;;;;;;;;;;26.50;1.00;;;;;;5145863;27;20336;-82
2023/05/19 09:45:59;;;;;;;;;;;26.80;1.00;;;;;;5138025;27;19966;-82
2023/05/19 09:48:25;;;;;;;;;;;27.10;1.00;;;;;;5145044;27;20656;-82
2023/05/19 09:50:51;;;;;;;;;;;27.00;1.00;;;;;;5126578;27;19947;-86
2023/05/19 09:53:17;;;;;;;;;;;27.10;1.00;;;;;;5111538;27;19938;-84
2023/05/19 09:55:43;;;;;;;;;;;27.00;1.00;;;;;;5131881;27;19931;-83
2023/05/19 09:58:08;;;;;;;;;;;26.90;1.00;;;;;;5142053;27;19930;-81
2023/05/19 10:00:34;;;;;;;;;;;27.20;1.00;;;;;;5140086;27;20419;-78
2023/05/19 10:03:02;;;;;;;;;;;27.60;1.00;;;;;;5128276;27;19931;-82
2023/05/19 10:05:28;;;;;;;;;;;28.00;1.00;;;;;;5138276;27;19939;-78
2023/05/19 10:07:54;;;;;;;;;;;28.40;1.00;;;;;;5134638;27;19924;-84
2023/05/19 10:10:20;;;;;;;;;;;29.00;1.00;;;;;;5118536;27;21427;-85
2023/05/19 10:12:47;;;;;;;;;;;29.20;1.00;;;;;;5146332;27;19923;-82
2023/05/19 10:15:13;;;;;;;;;;;28.90;1.00;;;;;;5148195;27;19944;-83
2023/05/19 10:17:39;;;;;;;;;;;28.80;1.00;;;;;;5146521;27;20279;-82
2023/05/19 10:20:13;;;;;;;;;;;28.60;1.00;;;;;;5143052;27;21232;-84
2023/05/19 10:22:38;;;;;;;;;;;28.40;1.00;;;;;;5124775;27;19927;-83
2023/05/19 10:25:05;;;;;;;;;;;28.40;1.00;;;;;;5129504;27;19923;-83
2023/05/19 10:27:32;;;;;;;;;;;28.40;1.00;;;;;;5136251;27;20417;-83
2023/05/19 10:30:00;;;;;;;;;;;28.30;1.00;;;;;;5145369;27;19931;-82
2023/05/19 10:32:28;;;;;;;;;;;28.60;1.00;;;;;;5149563;27;19972;-82
2023/05/19 10:35:01;;;;;;;;;;;29.30;1.00;;;;;;5152248;27;19927;-82
2023/05/19 10:37:46;;;;;;;;;;;29.60;1.00;;;;;;5149882;27;20272;-82
2023/05/19 10:40:19;;;;;;;;;;;29.60;1.00;;;;;;5125859;27;20587;-82
2023/05/19 10:43:11;;;;;;;;;;;29.60;1.00;;;;;;5151985;27;19945;-82
2023/05/19 10:45:47;;;;;;;;;;;29.90;1.00;;;;;;5134183;27;19991;-83
2023/05/19 10:48:14;;;;;;;;;;;30.00;1.00;;;;;;5150625;27;19977;-82
2023/05/19 10:50:42;;;;;;;;;;;30.00;1.00;;;;;;5133550;27;19932;-83
2023/05/19 10:53:12;;;;;;;;;;;29.90;1.00;;;;;;5151102;27;19927;-83
2023/05/19 10:55:47;;;;;;;;;;;29.50;1.00;;;;;;5150264;27;19927;-83
2023/05/19 10:58:13;;;;;;;;;;;29.30;1.00;;;;;;5172306;27;19926;-82
2023/05/19 11:00:40;;;;;;;;;;;29.30;1.00;;;;;;5158046;27;19971;-82
2023/05/19 11:03:13;;;;;;;;;;;29.60;1.00;;;;;;5141168;27;20013;-82
2023/05/19 11:05:38;;;;;;;;;;;29.90;1.00;;;;;;5157028;27;19988;-83
2023/05/19 11:08:06;;;;;;;;;;;30.20;1.00;;;;;;5134214;27;19923;-82
2023/05/19 11:10:32;;;;;;;;;;;30.00;1.00;;;;;;5168598;27;19972;-82
2023/05/19 11:12:58;;;;;;;;;;;29.80;1.00;;;;;;5144377;27;19923;-81
2023/05/19 11:15:27;;;;;;;;;;;29.30;1.00;;;;;;5175632;27;19927;-86
2023/05/19 11:17:53;;;;;;;;;;;29.10;1.00;;;;;;5143693;27;20252;-82
2023/05/19 11:20:20;;;;;;;;;;;29.10;1.00;;;;;;5157983;27;19944;-82
2023/05/19 11:22:59;;;;;;;;;;;29.00;1.00;;;;;;5144100;27;20317;-82
2023/05/19 11:25:40;;;;;;;;;;;28.70;1.00;;;;;;5156450;27;19933;-85
2023/05/19 11:28:05;;;;;;;;;;;29.00;1.00;;;;;;5156473;27;19954;-83
2023/05/19 11:30:31;;;;;;;;;;;29.50;1.00;;;;;;5135045;27;20287;-83
2023/05/19 11:32:57;;;;;;;;;;;29.80;1.00;;;;;;5156503;27;19980;-83
2023/05/19 11:35:23;;;;;;;;;;;29.70;1.00;;;;;;5141976;27;20187;-83
2023/05/19 11:37:51;;;;;;;;;;;29.30;1.00;;;;;;5140095;27;20398;-82
2023/05/19 11:40:16;;;;;;;;;;;29.50;1.00;;;;;;5139987;27;19929;-83
2023/05/19 11:42:43;;;;;;;;;;;29.80;1.00;;;;;;5154298;27;19931;-83
2023/05/19 11:45:09;;;;;;;;;;;30.40;1.00;;;;;;5139004;27;19922;-83
2023/05/19 11:47:35;;;;;;;;;;;30.90;1.00;;;;;;5139961;27;19926;-77
2023/05/19 11:50:00;;;;;;;;;;;30.90;1.00;;;;;;5170955;27;19923;-79
2023/05/19 11:52:26;;;;;;;;;;;31.10;1.00;;;;;;5153300;27;19926;-77
2023/05/19 11:54:52;;;;;;;;;;;31.40;1.00;;;;;;5159516;27;19927;-81
2023/05/19 11:57:17;;;;;;;;;;;31.70;1.00;;;;;;5152077;27;19930;-79
2023/05/19 11:59:44;;;;;;;;;;;31.90;1.00;;;;;;5143187;27;19941;-78
2023/05/19 12:02:20;;;;;;;;;;;31.30;1.00;;;;;;5149431;27;19923;-79
2023/05/19 12:04:46;;;;;;;;;;;30.80;1.00;;;;;;5151925;27;19934;-79
2023/05/19 12:07:12;;;;;;;;;;;30.70;1.00;;;;;;5156973;27;20034;-81
2023/05/19 12:09:38;;;;;;;;;;;30.60;1.00;;;;;;5142083;27;20009;-79
2023/05/19 12:12:04;;;;;;;;;;;30.80;1.00;;;;;;5148856;27;20025;-78
2023/05/19 12:14:33;;;;;;;;;;;30.90;1.00;;;;;;5117617;27;19927;-83
2023/05/19 12:17:08;;;;;;;;;;;30.80;1.00;;;;;;5175467;27;19923;-79
2023/05/19 12:19:34;;;;;;;;;;;30.70;1.00;;;;;;5139277;27;19976;-80
2023/05/19 12:22:00;;;;;;;;;;;30.50;1.00;;;;;;5156867;27;20411;-84
2023/05/19 12:24:25;;;;;;;;;;;30.20;1.00;;;;;;5169540;27;19944;-79
2023/05/19 12:26:51;;;;;;;;;;;29.70;1.00;;;;;;5167518;27;20049;-80
2023/05/19 12:29:17;;;;;;;;;;;29.50;1.00;;;;;;5153644;27;19954;-85
2023/05/19 12:31:45;;;;;;;;;;;29.50;1.00;;;;;;5131209;27;20026;-83
2023/05/19 12:34:11;;;;;;;;;;;29.70;1.00;;;;;;5143457;27;19979;-85
2023/05/19 12:36:37;;;;;;;;;;;29.50;1.00;;;;;;5170592;27;20256;-85
2023/05/19 12:39:04;;;;;;;;;;;28.80;1.00;;;;;;5153901;27;19933;-85
2023/05/19 12:41:30;;;;;;;;;;;28.30;1.00;;;;;;5138982;27;19923;-84
2023/05/19 12:43:56;;;;;;;;;;;28.00;1.00;;;;;;5145788;27;19926;-84
2023/05/19 12:46:21;;;;;;;;;;;27.70;1.00;;;;;;5135326;27;19927;-84
2023/05/19 12:48:47;;;;;;;;;;;27.60;1.00;;;;;;5138003;27;19933;-84
2023/05/19 12:51:16;;;;;;;;;;;27.70;1.00;;;;;;5138388;27;19934;-85
2023/05/19 12:53:42;;;;;;;;;;;28.40;1.00;;;;;;5133668;27;19934;-85
2023/05/19 12:56:14;;;;;;;;;;;28.90;1.00;;;;;;5120869;27;20367;-85
2023/05/19 12:58:40;;;;;;;;;;;29.30;1.00;;;;;;5149247;27;20372;-85
2023/05/19 13:01:07;;;;;;;;;;;29.50;1.00;;;;;;5170959;27;20024;-85
2023/05/19 13:03:38;;;;;;;;;;;29.90;1.00;;;;;;5151133;27;19923;-85
2023/05/19 13:06:03;;;;;;;;;;;30.10;1.00;;;;;;5144774;27;19932;-85
2023/05/19 13:08:29;;;;;;;;;;;29.90;1.00;;;;;;5137410;27;19929;-85
2023/05/19 13:10:55;;;;;;;;;;;29.00;1.00;;;;;;5148416;27;19927;-85
2023/05/19 13:13:20;;;;;;;;;;;27.90;1.00;;;;;;5131379;27;19926;-85
2023/05/19 13:15:49;;;;;;;;;;;27.50;1.00;;;;;;5109679;27;20627;-86
2023/05/19 13:18:15;;;;;;;;;;;28.20;1.00;;;;;;5149343;27;19922;-84
2023/05/19 13:20:41;;;;;;;;;;;29.20;1.00;;;;;;5150104;27;19933;-86
2023/05/19 13:23:08;;;;;;;;;;;29.70;1.00;;;;;;5144003;27;19933;-85
2023/05/19 13:25:34;;;;;;;;;;;29.00;1.00;;;;;;5147333;27;19923;-83
2023/05/19 13:28:02;;;;;;;;;;;28.80;1.00;;;;;;5134585;27;19927;-84
2023/05/19 13:30:28;;;;;;;;;;;29.20;1.00;;;;;;5134793;27;19938;-85
2023/05/19 13:32:53;;;;;;;;;;;29.70;1.00;;;;;;5154578;27;19923;-85
2023/05/19 13:35:19;;;;;;;;;;;29.70;1.00;;;;;;5126446;27;19966;-85
2023/05/19 13:37:45;;;;;;;;;;;28.80;1.00;;;;;;5151834;27;19933;-84
2023/05/19 13:40:11;;;;;;;;;;;28.80;1.00;;;;;;5137162;27;19981;-83
2023/05/19 13:42:36;;;;;;;;;;;29.50;1.00;;;;;;5135836;27;19923;-85
2023/05/19 13:45:02;;;;;;;;;;;30.20;1.00;;;;;;5126944;27;19938;-84
2023/05/19 13:47:28;;;;;;;;;;;30.70;1.00;;;;;;5133855;27;20380;-85
2023/05/19 13:49:54;;;;;;;;;;;30.00;1.00;;;;;;5142767;27;19930;-84
2023/05/19 13:52:20;;;;;;;;;;;29.60;1.00;;;;;;5152463;27;20021;-84
2023/05/19 13:54:46;;;;;;;;;;;28.90;1.00;;;;;;5152516;27;19927;-85
2023/05/19 13:57:11;;;;;;;;;;;27.50;1.00;;;;;;5136398;27;19934;-84
2023/05/19 13:59:37;;;;;;;;;;;26.20;1.00;;;;;;5152825;27;19938;-84
2023/05/19 14:02:06;;;;;;;;;;;25.20;1.00;;;;;;5154479;27;19930;-80
2023/05/19 14:04:31;;;;;;;;;;;25.20;1.00;;;;;;5151450;27;19938;-84
2023/05/19 14:06:57;;;;;;;;;;;25.50;1.00;;;;;;5127719;27;19927;-84
2023/05/19 14:09:23;;;;;;;;;;;26.00;1.00;;;;;;5128185;27;20154;-83
2023/05/19 14:11:49;;;;;;;;;;;26.50;1.00;;;;;;5145653;27;20408;-85
2023/05/19 14:14:15;;;;;;;;;;;26.80;1.00;;;;;;5141423;27;19923;-85
2023/05/19 14:16:40;;;;;;;;;;;27.20;1.00;;;;;;5151767;27;20385;-82
2023/05/19 14:19:06;;;;;;;;;;;26.70;1.00;;;;;;5145915;27;19933;-82
2023/05/19 14:21:32;;;;;;;;;;;26.80;1.00;;;;;;5149393;27;19974;-82
2023/05/19 14:23:57;;;;;;;;;;;28.10;1.00;;;;;;5124099;27;19937;-87
2023/05/19 14:26:23;;;;;;;;;;;29.20;1.00;;;;;;5137248;27;19979;-82
2023/05/19 14:28:49;;;;;;;;;;;29.70;1.00;;;;;;5162275;27;19923;-88